Saint Barthelemy, St. Barthelemy

7:33 PM AST on September 01, 2014 (GMT -0400)
ISTBARTH2 | Change Station
CLOSE
Current Station
Personal Weather Station
Location: St Barthelemy, ST BARTHELEMY
Elevation: 633 ft
Nearby Weather Stations

Elev 633 ft 17.90 °N, 62.81 °W | Updated 3 minutes ago

Scattered Clouds
Scattered Clouds
79.9 °F
Feels Like 86 °F
N
2.7
Wind Variable Wind from ESE
Gusts 4.9 mph

Today
High -- | Low -- °F
--% Chance of Precip.
Yesterday
High -- | Low -- °F
Precip. -- in
5:57 AM 6:25 PM
Waxing Crescent, 45% visible
Pressure 29.98 in
Visibility 6.2 miles
Clouds Scattered Clouds 2000 ft
Heat Index 86 °F
Dew Point 77 °F
Humidity 91%
Rainfall 0.00 in
Snow Depth Not available.
UV 1 out of 12
Pollen Not available.
Air Quality Not available.
Flu Activity Not available.
METAR TQPF 012100Z 09015KT 9999 SCT020 29/25 Q1015

More Conditions Fewer Conditions

Pressure 29.98 in
Visibility 6.2 miles
Clouds Scattered Clouds 2000 ft
Heat Index 86 °F
Dew Point 77 °F
Humidity 91%
Rainfall 0.00 in
Snow Depth Not available.
UV 1 out of 12
Pollen Not available.
Air Quality Not available.
Flu Activity Not available.
METAR TQPF 012100Z 09015KT 9999 SCT020 29/25 Q1015

More Conditions Fewer Conditions

10-Day Weather Forecast

Almanac

Astronomy

Sep. 01, 2014 Rise Set
Actual Time 5:57 AM AST 6:25 PM AST
Civil Twilight 5:35 AM AST 6:47 PM AST
Nautical Twilight 5:09 AM AST 7:13 PM AST
Astronomical Twilight 4:43 AM AST 7:38 PM AST
Moon 11:42 AM AST 11:20 PM AST
Length of Visible Light 13h 12m
Length of Day
12h 28m
Tomorrow will be 0m 58s shorter.
Waxing Crescent, 45% of the Moon is Illuminated
Today
Waxing Crescent
Sep 2
First Quarter
Sep 8
Full
Sep 15
Last Quarter
Sep 24
New

Community

WunderPhotos

Upload Photos

1,749,440 photos uploaded!

Nearby

Snow Depth

Not available.

Earthquake Activity

City Distance Mag. Time & Date
No recent earthquake activity has been reported nearby.
Minimum magnitude displayed is 2.5.

Coastal Water Temperatures

Place Temperature
No Stations Reporting

Nearby Weather Stations